sensor_id;sensor_type;location;lat;lon;timestamp;pressure;altitude;pressure_sealevel;temperature;humidity
49759;BME280;70329;45.524;10.194;2023-12-14T00:00:00;99033.97;;;7.25;100.00
49759;BME280;70329;45.524;10.194;2023-12-14T00:02:27;99039.16;;;7.21;100.00
49759;BME280;70329;45.524;10.194;2023-12-14T00:04:54;99042.41;;;7.23;100.00
49759;BME280;70329;45.524;10.194;2023-12-14T00:07:20;99047.63;;;7.15;100.00
49759;BME280;70329;45.524;10.194;2023-12-14T00:09:47;99053.34;;;7.13;100.00
49759;BME280;70329;45.524;10.194;2023-12-14T00:12:15;99050.09;;;7.11;100.00
49759;BME280;70329;45.524;10.194;2023-12-14T00:14:42;99050.38;;;7.10;100.00
49759;BME280;70329;45.524;10.194;2023-12-14T00:17:08;99046.84;;;7.04;100.00
49759;BME280;70329;45.524;10.194;2023-12-14T00:19:35;99048.22;;;7.01;100.00
49759;BME280;70329;45.524;10.194;2023-12-14T00:22:01;99049.91;;;6.97;100.00
49759;BME280;70329;45.524;10.194;2023-12-14T00:24:28;99054.25;;;6.93;100.00
49759;BME280;70329;45.524;10.194;2023-12-14T00:26:54;99058.34;;;6.91;100.00
49759;BME280;70329;45.524;10.194;2023-12-14T00:29:22;99066.81;;;6.89;100.00
49759;BME280;70329;45.524;10.194;2023-12-14T00:31:49;99068.97;;;6.87;100.00
49759;BME280;70329;45.524;10.194;2023-12-14T00:34:16;99079.88;;;6.87;100.00
49759;BME280;70329;45.524;10.194;2023-12-14T00:36:42;99074.41;;;6.87;100.00
49759;BME280;70329;45.524;10.194;2023-12-14T00:39:09;99079.88;;;6.87;100.00
49759;BME280;70329;45.524;10.194;2023-12-14T00:41:35;99074.72;;;6.86;100.00
49759;BME280;70329;45.524;10.194;2023-12-14T00:44:02;99069.00;;;6.82;100.00
49759;BME280;70329;45.524;10.194;2023-12-14T00:46:31;99082.59;;;6.82;100.00
49759;BME280;70329;45.524;10.194;2023-12-14T00:48:57;99082.06;;;6.80;100.00
49759;BME280;70329;45.524;10.194;2023-12-14T00:51:24;99088.06;;;6.77;100.00
49759;BME280;70329;45.524;10.194;2023-12-14T00:53:50;99089.97;;;6.77;100.00
49759;BME280;70329;45.524;10.194;2023-12-14T00:56:17;99088.88;;;6.73;100.00
49759;BME280;70329;45.524;10.194;2023-12-14T00:58:43;99098.97;;;6.72;100.00
49759;BME280;70329;45.524;10.194;2023-12-14T01:01:11;99101.97;;;6.71;100.00
49759;BME280;70329;45.524;10.194;2023-12-14T01:03:39;99101.97;;;6.71;100.00
49759;BME280;70329;45.524;10.194;2023-12-14T01:06:06;99110.94;;;6.71;100.00
49759;BME280;70329;45.524;10.194;2023-12-14T01:08:33;99105.78;;;6.70;100.00
49759;BME280;70329;45.524;10.194;2023-12-14T01:10:59;99117.78;;;6.49;100.00
49759;BME280;70329;45.524;10.194;2023-12-14T01:13:26;99118.06;;;6.47;100.00
49759;BME280;70329;45.524;10.194;2023-12-14T01:15:53;99123.50;;;6.47;100.00
49759;BME280;70329;45.524;10.194;2023-12-14T01:18:19;99124.34;;;6.48;100.00
49759;BME280;70329;45.524;10.194;2023-12-14T01:20:47;99129.75;;;6.53;100.00
49759;BME280;70329;45.524;10.194;2023-12-14T01:23:14;99139.81;;;6.52;100.00
49759;BME280;70329;45.524;10.194;2023-12-14T01:25:41;99143.34;;;6.58;100.00
49759;BME280;70329;45.524;10.194;2023-12-14T01:28:07;99140.88;;;6.56;100.00
49759;BME280;70329;45.524;10.194;2023-12-14T01:30:34;99147.97;;;6.57;100.00
49759;BME280;70329;45.524;10.194;2023-12-14T01:33:01;99150.41;;;6.49;100.00
49759;BME280;70329;45.524;10.194;2023-12-14T01:35:28;99155.59;;;6.55;100.00
49759;BME280;70329;45.524;10.194;2023-12-14T01:37:56;99159.94;;;6.56;100.00
49759;BME280;70329;45.524;10.194;2023-12-14T01:40:23;99161.56;;;6.52;100.00
49759;BME280;70329;45.524;10.194;2023-12-14T01:42:49;99161.31;;;6.49;100.00
49759;BME280;70329;45.524;10.194;2023-12-14T01:45:16;99167.00;;;6.52;100.00
49759;BME280;70329;45.524;10.194;2023-12-14T01:47:43;99167.31;;;6.30;100.00
49759;BME280;70329;45.524;10.194;2023-12-14T01:50:10;99165.13;;;6.27;100.00
49759;BME280;70329;45.524;10.194;2023-12-14T01:52:37;99170.81;;;6.21;100.00
49759;BME280;70329;45.524;10.194;2023-12-14T01:55:06;99173.53;;;6.21;100.00
49759;BME280;70329;45.524;10.194;2023-12-14T01:57:32;99186.59;;;6.24;100.00
49759;BME280;70329;45.524;10.194;2023-12-14T01:59:59;99185.53;;;6.25;100.00
49759;BME280;70329;45.524;10.194;2023-12-14T02:02:26;99184.16;;;6.22;100.00
49759;BME280;70329;45.524;10.194;2023-12-14T02:04:53;99183.59;;;6.15;100.00
49759;BME280;70329;45.524;10.194;2023-12-14T02:07:19;99195.53;;;6.14;100.00
49759;BME280;70329;45.524;10.194;2023-12-14T02:09:48;99194.47;;;6.15;100.00
49759;BME280;70329;45.524;10.194;2023-12-14T02:12:17;99199.66;;;6.17;100.00
49759;BME280;70329;45.524;10.194;2023-12-14T02:14:43;99196.38;;;6.20;100.00
49759;BME280;70329;45.524;10.194;2023-12-14T02:17:10;99197.47;;;6.24;100.00
49759;BME280;70329;45.524;10.194;2023-12-14T02:19:38;99202.38;;;6.27;100.00
49759;BME280;70329;45.524;10.194;2023-12-14T02:22:05;99199.13;;;6.30;100.00
49759;BME280;70329;45.524;10.194;2023-12-14T02:24:34;99198.56;;;6.33;100.00
49759;BME280;70329;45.524;10.194;2023-12-14T02:27:01;99185.50;;;6.35;100.00
49759;BME280;70329;45.524;10.194;2023-12-14T02:29:28;99188.22;;;6.35;100.00
49759;BME280;70329;45.524;10.194;2023-12-14T02:31:54;99188.78;;;6.37;100.00
49759;BME280;70329;45.524;10.194;2023-12-14T02:34:21;99193.94;;;6.38;100.00
49759;BME280;70329;45.524;10.194;2023-12-14T02:36:50;99196.38;;;6.40;100.00
49759;BME280;70329;45.524;10.194;2023-12-14T02:39:16;99199.94;;;6.40;100.00
49759;BME280;70329;45.524;10.194;2023-12-14T02:41:44;99198.56;;;6.43;100.00
49759;BME280;70329;45.524;10.194;2023-12-14T02:44:11;99204.28;;;6.47;100.00
49759;BME280;70329;45.524;10.194;2023-12-14T02:46:37;99197.75;;;6.48;100.00
49759;BME280;70329;45.524;10.194;2023-12-14T02:49:04;99201.31;;;6.53;100.00
49759;BME280;70329;45.524;10.194;2023-12-14T02:51:31;99201.00;;;6.55;100.00
49759;BME280;70329;45.524;10.194;2023-12-14T02:53:57;99203.72;;;6.60;100.00
49759;BME280;70329;45.524;10.194;2023-12-14T02:56:24;99210.53;;;6.62;100.00
49759;BME280;70329;45.524;10.194;2023-12-14T02:58:52;99209.72;;;6.67;100.00
49759;BME280;70329;45.524;10.194;2023-12-14T03:01:19;99220.31;;;6.68;100.00
49759;BME280;70329;45.524;10.194;2023-12-14T03:03:46;99225.50;;;6.75;100.00
49759;BME280;70329;45.524;10.194;2023-12-14T03:06:13;99227.66;;;6.78;100.00
49759;BME280;70329;45.524;10.194;2023-12-14T03:08:39;99230.09;;;6.79;100.00
49759;BME280;70329;45.524;10.194;2023-12-14T03:11:06;99226.84;;;6.82;100.00
49759;BME280;70329;45.524;10.194;2023-12-14T03:13:33;99231.75;;;6.85;100.00
49759;BME280;70329;45.524;10.194;2023-12-14T03:16:01;99227.66;;;6.88;100.00
49759;BME280;70329;45.524;10.194;2023-12-14T03:18:27;99226.56;;;6.89;100.00
49759;BME280;70329;45.524;10.194;2023-12-14T03:20:54;99232.53;;;6.91;100.00
49759;BME280;70329;45.524;10.194;2023-12-14T03:23:21;99235.28;;;6.91;100.00
49759;BME280;70329;45.524;10.194;2023-12-14T03:25:47;99233.09;;;6.93;100.00
49759;BME280;70329;45.524;10.194;2023-12-14T03:28:14;99233.09;;;6.93;100.00
49759;BME280;70329;45.524;10.194;2023-12-14T03:30:40;99242.06;;;6.93;100.00
49759;BME280;70329;45.524;10.194;2023-12-14T03:33:08;99243.16;;;6.97;100.00
49759;BME280;70329;45.524;10.194;2023-12-14T03:35:35;99233.94;;;6.78;100.00
49759;BME280;70329;45.524;10.194;2023-12-14T03:38:02;99239.63;;;6.82;100.00
49759;BME280;70329;45.524;10.194;2023-12-14T03:40:29;99241.53;;;6.81;100.00
49759;BME280;70329;45.524;10.194;2023-12-14T03:42:55;99244.00;;;6.83;100.00
49759;BME280;70329;45.524;10.194;2023-12-14T03:45:22;99239.91;;;6.80;100.00
49759;BME280;70329;45.524;10.194;2023-12-14T03:47:48;99248.34;;;6.79;100.00
49759;BME280;70329;45.524;10.194;2023-12-14T03:50:16;99245.63;;;6.74;100.00
49759;BME280;70329;45.524;10.194;2023-12-14T03:52:43;99255.13;;;6.76;100.00
49759;BME280;70329;45.524;10.194;2023-12-14T03:55:10;99251.31;;;6.87;100.00
49759;BME280;70329;45.524;10.194;2023-12-14T03:57:36;99256.50;;;6.89;100.00
49759;BME280;70329;45.524;10.194;2023-12-14T04:00:03;99249.44;;;6.83;100.00
49759;BME280;70329;45.524;10.194;2023-12-14T04:02:30;99256.50;;;6.79;100.00
49759;BME280;70329;45.524;10.194;2023-12-14T04:04:57;99270.38;;;6.82;100.00
49759;BME280;70329;45.524;10.194;2023-12-14T04:07:24;99273.38;;;6.76;100.00
49759;BME280;70329;45.524;10.194;2023-12-14T04:09:51;99268.75;;;6.71;100.00
49759;BME280;70329;45.524;10.194;2023-12-14T04:12:18;99279.63;;;6.71;100.00
49759;BME280;70329;45.524;10.194;2023-12-14T04:14:44;99279.63;;;6.71;100.00
49759;BME280;70329;45.524;10.194;2023-12-14T04:17:11;99280.47;;;6.67;100.00
49759;BME280;70329;45.524;10.194;2023-12-14T04:19:38;99283.44;;;6.70;100.00
49759;BME280;70329;45.524;10.194;2023-12-14T04:22:05;99287.53;;;6.63;100.00
49759;BME280;70329;45.524;10.194;2023-12-14T04:24:33;99300.06;;;6.59;100.00
49759;BME280;70329;45.524;10.194;2023-12-14T04:27:00;99294.59;;;6.64;100.00
49759;BME280;70329;45.524;10.194;2023-12-14T04:29:26;99288.59;;;6.62;100.00
49759;BME280;70329;45.524;10.194;2023-12-14T04:31:53;99291.06;;;6.63;100.00
49759;BME280;70329;45.524;10.194;2023-12-14T04:34:20;99298.41;;;6.68;100.00
49759;BME280;70329;45.524;10.194;2023-12-14T04:36:46;99301.41;;;6.71;100.00
49759;BME280;70329;45.524;10.194;2023-12-14T04:39:13;99299.22;;;6.73;100.00
49759;BME280;70329;45.524;10.194;2023-12-14T04:41:42;99302.22;;;6.77;100.00
49759;BME280;70329;45.524;10.194;2023-12-14T04:44:08;99310.94;;;6.79;100.00
49759;BME280;70329;45.524;10.194;2023-12-14T04:46:37;99303.31;;;6.71;100.00
49759;BME280;70329;45.524;10.194;2023-12-14T04:49:03;99314.47;;;6.74;100.00
49759;BME280;70329;45.524;10.194;2023-12-14T04:51:30;99318.56;;;6.77;100.00
49759;BME280;70329;45.524;10.194;2023-12-14T04:53:57;99315.00;;;6.81;100.00
49759;BME280;70329;45.524;10.194;2023-12-14T04:56:23;99326.72;;;6.82;100.00
49759;BME280;70329;45.524;10.194;2023-12-14T04:58:51;99325.34;;;6.84;100.00
49759;BME280;70329;45.524;10.194;2023-12-14T05:01:18;99326.16;;;6.85;100.00
49759;BME280;70329;45.524;10.194;2023-12-14T05:03:45;99327.53;;;6.87;100.00
49759;BME280;70329;45.524;10.194;2023-12-14T05:06:11;99316.09;;;6.90;100.00
49759;BME280;70329;45.524;10.194;2023-12-14T05:08:39;99324.81;;;6.92;100.00
49759;BME280;70329;45.524;10.194;2023-12-14T05:11:06;99333.25;;;6.91;100.00
49759;BME280;70329;45.524;10.194;2023-12-14T05:13:32;99335.16;;;6.90;100.00
49759;BME280;70329;45.524;10.194;2023-12-14T05:16:00;99340.31;;;6.87;100.00
49759;BME280;70329;45.524;10.194;2023-12-14T05:18:27;99339.53;;;6.86;100.00
49759;BME280;70329;45.524;10.194;2023-12-14T05:20:53;99353.38;;;6.85;100.00
49759;BME280;70329;45.524;10.194;2023-12-14T05:23:20;99352.56;;;6.84;100.00
49759;BME280;70329;45.524;10.194;2023-12-14T05:25:47;99356.94;;;6.80;100.00
49759;BME280;70329;45.524;10.194;2023-12-14T05:28:13;99362.09;;;6.77;100.00
49759;BME280;70329;45.524;10.194;2023-12-14T05:30:40;99376.78;;;6.76;100.00
49759;BME280;70329;45.524;10.194;2023-12-14T05:33:08;99370.53;;;6.75;100.00
49759;BME280;70329;45.524;10.194;2023-12-14T05:35:35;99378.13;;;6.73;100.00
49759;BME280;70329;45.524;10.194;2023-12-14T05:38:05;99373.50;;;6.74;100.00
49759;BME280;70329;45.524;10.194;2023-12-14T05:40:33;99376.78;;;6.76;100.00
49759;BME280;70329;45.524;10.194;2023-12-14T05:43:00;99375.69;;;6.67;100.00
49759;BME280;70329;45.524;10.194;2023-12-14T05:45:27;99378.66;;;6.60;100.00
49759;BME280;70329;45.524;10.194;2023-12-14T05:47:53;99394.97;;;6.60;100.00
49759;BME280;70329;45.524;10.194;2023-12-14T05:50:27;99402.84;;;6.57;100.00
49759;BME280;70329;45.524;10.194;2023-12-14T05:52:55;99412.91;;;6.51;100.00
49759;BME280;70329;45.524;10.194;2023-12-14T05:55:23;99412.38;;;6.59;100.00
49759;BME280;70329;45.524;10.194;2023-12-14T05:57:50;99411.84;;;6.57;100.00
49759;BME280;70329;45.524;10.194;2023-12-14T06:00:17;99409.09;;;6.47;100.00
49759;BME280;70329;45.524;10.194;2023-12-14T06:02:44;99410.16;;;6.41;100.00
49759;BME280;70329;45.524;10.194;2023-12-14T06:05:11;99415.06;;;6.44;100.00
49759;BME280;70329;45.524;10.194;2023-12-14T06:07:39;99414.47;;;6.37;100.00
49759;BME280;70329;45.524;10.194;2023-12-14T06:10:06;99420.50;;;6.39;100.00
49759;BME280;70329;45.524;10.194;2023-12-14T06:12:34;99416.13;;;6.33;100.00
49759;BME280;70329;45.524;10.194;2023-12-14T06:15:00;99416.38;;;6.31;100.00
49759;BME280;70329;45.524;10.194;2023-12-14T06:17:28;99420.72;;;6.27;100.00
49759;BME280;70329;45.524;10.194;2023-12-14T06:19:55;99418.81;;;6.28;100.00
49759;BME280;70329;45.524;10.194;2023-12-14T06:22:22;99423.97;;;6.24;100.00
49759;BME280;70329;45.524;10.194;2023-12-14T06:24:50;99434.53;;;6.21;100.00
49759;BME280;70329;45.524;10.194;2023-12-14T06:27:16;99435.59;;;6.15;100.00
49759;BME280;70329;45.524;10.194;2023-12-14T06:29:43;99435.88;;;6.13;100.00
49759;BME280;70329;45.524;10.194;2023-12-14T06:32:09;99437.22;;;6.11;100.00
49759;BME280;70329;45.524;10.194;2023-12-14T06:34:36;99441.84;;;6.10;100.00
49759;BME280;70329;45.524;10.194;2023-12-14T06:37:03;99439.94;;;6.11;100.00
49759;BME280;70329;45.524;10.194;2023-12-14T06:39:30;99444.00;;;6.08;100.00
49759;BME280;70329;45.524;10.194;2023-12-14T06:41:58;99454.09;;;6.13;100.00
49759;BME280;70329;45.524;10.194;2023-12-14T06:44:25;99456.00;;;6.17;100.00
49759;BME280;70329;45.524;10.194;2023-12-14T06:46:53;99465.06;;;6.28;100.00
49759;BME280;70329;45.524;10.194;2023-12-14T06:49:20;99465.81;;;6.23;100.00
49759;BME280;70329;45.524;10.194;2023-12-14T06:51:47;99460.94;;;6.25;100.00
49759;BME280;70329;45.524;10.194;2023-12-14T06:54:14;99462.28;;;6.23;100.00
49759;BME280;70329;45.524;10.194;2023-12-14T06:56:40;99474.81;;;6.24;100.00
49759;BME280;70329;45.524;10.194;2023-12-14T06:59:08;99472.88;;;6.19;100.00
49759;BME280;70329;45.524;10.194;2023-12-14T07:01:35;99470.69;;;6.16;100.00
49759;BME280;70329;45.524;10.194;2023-12-14T07:04:01;99484.00;;;6.13;100.00
49759;BME280;70329;45.524;10.194;2023-12-14T07:06:29;99483.16;;;6.12;100.00
49759;BME280;70329;45.524;10.194;2023-12-14T07:08:55;99486.72;;;6.13;100.00
49759;BME280;70329;45.524;10.194;2023-12-14T07:11:22;99494.84;;;6.13;100.00
49759;BME280;70329;45.524;10.194;2023-12-14T07:13:49;99493.28;;;6.17;100.00
49759;BME280;70329;45.524;10.194;2023-12-14T07:16:17;99494.34;;;6.16;100.00
49759;BME280;70329;45.524;10.194;2023-12-14T07:18:43;99502.78;;;6.19;100.00
49759;BME280;70329;45.524;10.194;2023-12-14T07:21:10;99499.81;;;6.26;100.00
49759;BME280;70329;45.524;10.194;2023-12-14T07:23:37;99512.66;;;6.30;100.00
49759;BME280;70329;45.524;10.194;2023-12-14T07:26:04;99510.16;;;6.29;100.00
49759;BME280;70329;45.524;10.194;2023-12-14T07:28:31;99514.25;;;6.26;100.00
49759;BME280;70329;45.524;10.194;2023-12-14T07:30:57;99523.47;;;6.25;100.00
49759;BME280;70329;45.524;10.194;2023-12-14T07:33:26;99524.06;;;6.27;100.00
49759;BME280;70329;45.524;10.194;2023-12-14T07:35:52;99539.00;;;6.30;100.00
49759;BME280;70329;45.524;10.194;2023-12-14T07:38:19;99542.03;;;6.33;100.00
49759;BME280;70329;45.524;10.194;2023-12-14T07:40:46;99546.91;;;6.31;100.00
49759;BME280;70329;45.524;10.194;2023-12-14T07:43:13;99557.97;;;6.20;100.00
49759;BME280;70329;45.524;10.194;2023-12-14T07:45:39;99554.72;;;6.23;100.00
49759;BME280;70329;45.524;10.194;2023-12-14T07:48:06;99560.47;;;6.26;100.00
49759;BME280;70329;45.524;10.194;2023-12-14T07:50:34;99563.81;;;6.38;100.00
49759;BME280;70329;45.524;10.194;2023-12-14T07:53:00;99560.06;;;6.50;100.00
49759;BME280;70329;45.524;10.194;2023-12-14T07:55:28;99565.84;;;6.58;100.00
49759;BME280;70329;45.524;10.194;2023-12-14T07:57:54;99567.13;;;6.51;100.00
49759;BME280;70329;45.524;10.194;2023-12-14T08:00:21;99568.44;;;6.38;100.00
49759;BME280;70329;45.524;10.194;2023-12-14T08:02:48;99582.03;;;6.38;100.00
49759;BME280;70329;45.524;10.194;2023-12-14T08:05:14;99587.13;;;6.24;100.00
49759;BME280;70329;45.524;10.194;2023-12-14T08:07:42;99599.09;;;6.28;100.00
49759;BME280;70329;45.524;10.194;2023-12-14T08:10:09;99600.00;;;6.39;100.00
49759;BME280;70329;45.524;10.194;2023-12-14T08:12:36;99599.78;;;6.51;100.00
49759;BME280;70329;45.524;10.194;2023-12-14T08:15:30;99601.94;;;6.49;100.00
49759;BME280;70329;45.524;10.194;2023-12-14T08:18:00;99602.75;;;6.44;100.00
49759;BME280;70329;45.524;10.194;2023-12-14T08:20:27;99606.78;;;6.36;100.00
49759;BME280;70329;45.524;10.194;2023-12-14T08:22:56;99608.38;;;6.32;100.00
49759;BME280;70329;45.524;10.194;2023-12-14T08:25:22;99605.38;;;6.34;100.00
49759;BME280;70329;45.524;10.194;2023-12-14T08:27:49;99615.81;;;6.47;100.00
49759;BME280;70329;45.524;10.194;2023-12-14T08:30:16;99622.94;;;6.53;100.00
49759;BME280;70329;45.524;10.194;2023-12-14T08:32:43;99620.81;;;6.65;100.00
49759;BME280;70329;45.524;10.194;2023-12-14T08:35:10;99628.78;;;6.77;100.00
49759;BME280;70329;45.524;10.194;2023-12-14T08:37:36;99633.44;;;6.81;100.00
49759;BME280;70329;45.524;10.194;2023-12-14T08:40:05;99632.34;;;6.82;100.00
49759;BME280;70329;45.524;10.194;2023-12-14T08:42:32;99633.72;;;6.85;100.00
49759;BME280;70329;45.524;10.194;2023-12-14T08:44:59;99634.56;;;6.90;100.00
49759;BME280;70329;45.524;10.194;2023-12-14T08:47:26;99642.75;;;6.95;100.00
49759;BME280;70329;45.524;10.194;2023-12-14T08:49:52;99652.88;;;7.05;100.00
49759;BME280;70329;45.524;10.194;2023-12-14T08:52:19;99654.56;;;7.11;100.00
49759;BME280;70329;45.524;10.194;2023-12-14T08:54:45;99661.34;;;7.09;100.00
49759;BME280;70329;45.524;10.194;2023-12-14T08:57:13;99663.25;;;7.08;100.00
49759;BME280;70329;45.524;10.194;2023-12-14T08:59:40;99670.31;;;7.09;100.00
49759;BME280;70329;45.524;10.194;2023-12-14T09:02:07;99677.16;;;7.12;100.00
49759;BME280;70329;45.524;10.194;2023-12-14T09:04:33;99675.09;;;6.87;100.00
49759;BME280;70329;45.524;10.194;2023-12-14T09:07:04;99680.78;;;6.80;100.00
49759;BME280;70329;45.524;10.194;2023-12-14T09:09:31;99681.66;;;6.86;100.00
49759;BME280;70329;45.524;10.194;2023-12-14T09:11:58;99682.78;;;6.95;100.00
49759;BME280;70329;45.524;10.194;2023-12-14T09:14:26;99689.53;;;6.87;100.00
49759;BME280;70329;45.524;10.194;2023-12-14T09:17:12;99692.50;;;6.81;100.00
49759;BME280;70329;45.524;10.194;2023-12-14T09:19:43;99699.41;;;7.03;100.00
49759;BME280;70329;45.524;10.194;2023-12-14T09:22:10;99699.53;;;7.19;100.00
49759;BME280;70329;45.524;10.194;2023-12-14T09:24:36;99703.91;;;7.20;100.00
49759;BME280;70329;45.524;10.194;2023-12-14T09:27:04;99700.34;;;7.19;100.00
49759;BME280;70329;45.524;10.194;2023-12-14T09:29:32;99702.03;;;7.30;100.00
49759;BME280;70329;45.524;10.194;2023-12-14T09:31:58;99718.06;;;7.27;100.00
49759;BME280;70329;45.524;10.194;2023-12-14T09:34:25;99722.69;;;7.26;100.00
49759;BME280;70329;45.524;10.194;2023-12-14T09:36:51;99728.16;;;7.26;100.00
49759;BME280;70329;45.524;10.194;2023-12-14T09:39:18;99727.28;;;7.16;100.00
49759;BME280;70329;45.524;10.194;2023-12-14T09:41:47;99728.66;;;7.18;100.00
49759;BME280;70329;45.524;10.194;2023-12-14T09:44:13;99732.19;;;7.14;100.00
49759;BME280;70329;45.524;10.194;2023-12-14T09:46:41;99731.44;;;7.28;100.00
49759;BME280;70329;45.524;10.194;2023-12-14T09:49:15;99736.91;;;7.33;100.00
49759;BME280;70329;45.524;10.194;2023-12-14T09:51:42;99738.84;;;7.38;100.00
49759;BME280;70329;45.524;10.194;2023-12-14T09:54:08;99742.94;;;7.40;100.00
49759;BME280;70329;45.524;10.194;2023-12-14T09:56:45;99747.09;;;7.58;100.00
49759;BME280;70329;45.524;10.194;2023-12-14T09:59:12;99750.16;;;7.72;100.00
49759;BME280;70329;45.524;10.194;2023-12-14T10:01:40;99749.84;;;7.63;100.00
49759;BME280;70329;45.524;10.194;2023-12-14T10:04:08;99752.38;;;7.85;100.00
49759;BME280;70329;45.524;10.194;2023-12-14T10:06:35;99743.97;;;8.01;100.00
49759;BME280;70329;45.524;10.194;2023-12-14T10:09:02;99745.09;;;8.05;100.00
49759;BME280;70329;45.524;10.194;2023-12-14T10:11:29;99745.31;;;7.99;100.00
49759;BME280;70329;45.524;10.194;2023-12-14T10:13:56;99740.66;;;7.84;100.00
49759;BME280;70329;45.524;10.194;2023-12-14T10:16:29;99746.38;;;7.83;100.00
49759;BME280;70329;45.524;10.194;2023-12-14T10:18:59;99746.63;;;7.76;100.00
49759;BME280;70329;45.524;10.194;2023-12-14T10:21:27;99754.53;;;7.78;100.00
49759;BME280;70329;45.524;10.194;2023-12-14T10:23:55;99756.47;;;7.82;100.00
49759;BME280;70329;45.524;10.194;2023-12-14T10:26:22;99756.75;;;7.86;100.00
49759;BME280;70329;45.524;10.194;2023-12-14T10:28:51;99762.50;;;7.94;100.00
49759;BME280;70329;45.524;10.194;2023-12-14T10:31:18;99762.81;;;8.08;100.00
49759;BME280;70329;45.524;10.194;2023-12-14T10:33:45;99760.91;;;8.03;100.00
49759;BME280;70329;45.524;10.194;2023-12-14T10:36:13;99768.03;;;8.14;100.00
49759;BME280;70329;45.524;10.194;2023-12-14T10:38:40;99761.47;;;8.15;100.00
49759;BME280;70329;45.524;10.194;2023-12-14T10:41:11;99764.75;;;8.23;100.00
49759;BME280;70329;45.524;10.194;2023-12-14T10:43:41;99775.94;;;8.21;100.00
49759;BME280;70329;45.524;10.194;2023-12-14T10:46:09;99782.50;;;8.25;100.00
49759;BME280;70329;45.524;10.194;2023-12-14T10:48:36;99773.72;;;8.18;100.00
49759;BME280;70329;45.524;10.194;2023-12-14T10:51:04;99778.13;;;8.19;100.00
49759;BME280;70329;45.524;10.194;2023-12-14T10:53:33;99777.81;;;8.15;100.00
49759;BME280;70329;45.524;10.194;2023-12-14T10:56:02;99788.19;;;8.08;100.00
49759;BME280;70329;45.524;10.194;2023-12-14T10:58:45;99786.00;;;8.05;100.00
49759;BME280;70329;45.524;10.194;2023-12-14T11:01:14;99788.72;;;8.05;100.00
49759;BME280;70329;45.524;10.194;2023-12-14T11:03:41;99801.53;;;8.05;100.00
49759;BME280;70329;45.524;10.194;2023-12-14T11:06:20;99792.81;;;8.08;100.00
49759;BME280;70329;45.524;10.194;2023-12-14T11:08:51;99793.66;;;8.13;100.00
49759;BME280;70329;45.524;10.194;2023-12-14T11:11:20;99801.28;;;8.16;100.00
49759;BME280;70329;45.524;10.194;2023-12-14T11:13:50;99802.72;;;8.29;100.00
49759;BME280;70329;45.524;10.194;2023-12-14T11:16:19;99795.63;;;8.38;100.00
49759;BME280;70329;45.524;10.194;2023-12-14T11:18:46;99804.66;;;8.44;100.00
49759;BME280;70329;45.524;10.194;2023-12-14T11:21:18;99803.03;;;8.53;100.00
49759;BME280;70329;45.524;10.194;2023-12-14T11:23:47;99809.88;;;8.60;100.00
49759;BME280;70329;45.524;10.194;2023-12-14T11:26:24;99803.06;;;8.68;100.00
49759;BME280;70329;45.524;10.194;2023-12-14T11:28:54;99803.06;;;8.73;100.00
49759;BME280;70329;45.524;10.194;2023-12-14T11:31:20;99812.91;;;8.79;100.00
49759;BME280;70329;45.524;10.194;2023-12-14T11:33:48;99808.81;;;8.76;100.00
49759;BME280;70329;45.524;10.194;2023-12-14T11:36:14;99808.81;;;8.76;100.00
49759;BME280;70329;45.524;10.194;2023-12-14T11:38:42;99803.06;;;8.83;100.00
49759;BME280;70329;45.524;10.194;2023-12-14T11:41:09;99818.66;;;8.88;100.00
49759;BME280;70329;45.524;10.194;2023-12-14T11:43:40;99810.69;;;8.91;100.00
49759;BME280;70329;45.524;10.194;2023-12-14T11:46:07;99806.59;;;8.94;100.00
49759;BME280;70329;45.524;10.194;2023-12-14T11:48:34;99811.53;;;8.97;100.00
49759;BME280;70329;45.524;10.194;2023-12-14T11:51:01;99817.81;;;8.92;100.00
49759;BME280;70329;45.524;10.194;2023-12-14T11:53:29;99818.91;;;8.91;100.00
49759;BME280;70329;45.524;10.194;2023-12-14T11:55:56;99816.44;;;8.90;100.00
49759;BME280;70329;45.524;10.194;2023-12-14T11:58:24;99815.34;;;8.91;100.00
49759;BME280;70329;45.524;10.194;2023-12-14T12:00:53;99814.25;;;8.92;100.00
49759;BME280;70329;45.524;10.194;2023-12-14T12:03:20;99810.97;;;8.95;100.00
49759;BME280;70329;45.524;10.194;2023-12-14T12:05:49;99814.00;;;8.98;100.00
49759;BME280;70329;45.524;10.194;2023-12-14T12:08:18;99811.81;;;9.00;100.00
49759;BME280;70329;45.524;10.194;2023-12-14T12:10:46;99808.78;;;9.02;100.00
49759;BME280;70329;45.524;10.194;2023-12-14T12:13:14;99813.72;;;9.10;100.00
49759;BME280;70329;45.524;10.194;2023-12-14T12:15:42;99816.69;;;9.13;100.00
49759;BME280;70329;45.524;10.194;2023-12-14T12:18:14;99826.00;;;9.17;100.00
49759;BME280;70329;45.524;10.194;2023-12-14T12:20:42;99821.34;;;9.18;100.00
49759;BME280;70329;45.524;10.194;2023-12-14T12:23:09;99821.63;;;9.16;100.00
49759;BME280;70329;45.524;10.194;2023-12-14T12:25:37;99815.06;;;9.17;100.00
49759;BME280;70329;45.524;10.194;2023-12-14T12:28:03;99820.81;;;9.21;100.00
49759;BME280;70329;45.524;10.194;2023-12-14T12:30:30;99818.88;;;9.21;100.00
49759;BME280;70329;45.524;10.194;2023-12-14T12:32:57;99812.31;;;9.22;100.00
49759;BME280;70329;45.524;10.194;2023-12-14T12:35:25;99802.22;;;9.18;100.00
49759;BME280;70329;45.524;10.194;2023-12-14T12:37:52;99809.31;;;9.14;100.00
49759;BME280;70329;45.524;10.194;2023-12-14T12:40:20;99811.53;;;9.12;100.00
49759;BME280;70329;45.524;10.194;2023-12-14T12:42:47;99816.69;;;9.13;100.00
49759;BME280;70329;45.524;10.194;2023-12-14T12:45:15;99816.69;;;9.13;100.00
49759;BME280;70329;45.524;10.194;2023-12-14T12:47:42;99818.63;;;9.18;100.00
49759;BME280;70329;45.524;10.194;2023-12-14T12:50:08;99816.72;;;9.23;100.00